Time;durP1;ratioP1;P1;durP2;ratioP2;P2;SDS_P1;SDS_P2;PMS_P1;PMS_P2;Temp;Humidity;BMP_temperature;BMP_pressure;BME280_temperature;BME280_humidity;BME280_pressure;Samples;Min_cycle;Max_cycle;Signal;HPM_P1;HPM_P2
2023/09/04 00:01:13;;;;;;;5.25;4.75;;;14.50;99.90;;;;;;5050044;28;20111;-90
2023/09/04 00:03:44;;;;;;;6.85;5.95;;;14.50;99.90;;;;;;5045993;28;20044;-89
2023/09/04 00:06:10;;;;;;;7.10;6.40;;;14.50;99.90;;;;;;5023365;28;20097;-89
2023/09/04 00:08:36;;;;;;;6.40;5.70;;;14.50;99.90;;;;;;5034036;28;20043;-89
2023/09/04 00:11:02;;;;;;;5.25;4.75;;;14.50;99.90;;;;;;5046039;28;20381;-89
2023/09/04 00:13:31;;;;;;;5.28;4.78;;;14.40;99.90;;;;;;5045150;28;20041;-89
2023/09/04 00:16:04;;;;;;;7.45;5.28;;;14.40;99.90;;;;;;5059763;28;20063;-89
2023/09/04 00:18:32;;;;;;;7.65;5.35;;;14.40;99.90;;;;;;5056632;28;20063;-90
2023/09/04 00:21:28;;;;;;;6.00;5.50;;;14.40;99.90;;;;;;5056379;28;20121;-89
2023/09/04 00:23:59;;;;;;;7.03;6.32;;;14.40;99.90;;;;;;5037326;28;20033;-89
2023/09/04 00:29:34;;;;;;;5.03;4.53;;;14.30;99.90;;;;;;5044168;28;20557;-89
2023/09/04 00:32:28;;;;;;;4.57;4.00;;;14.30;99.90;;;;;;5063359;28;20460;-90
2023/09/04 00:35:01;;;;;;;6.65;5.07;;;14.30;99.90;;;;;;5046623;28;20040;-89
2023/09/04 00:37:33;;;;;;;6.38;4.75;;;14.30;99.90;;;;;;5029840;28;20048;-90
2023/09/04 00:40:05;;;;;;;5.03;4.53;;;14.30;99.90;;;;;;5053454;28;20040;-89
2023/09/04 00:42:40;;;;;;;6.47;5.78;;;14.20;99.90;;;;;;5052997;28;20051;-90
2023/09/04 00:45:14;;;;;;;6.05;5.40;;;14.20;99.90;;;;;;5048339;28;20491;-90
2023/09/04 00:47:56;;;;;;;5.65;4.80;;;14.20;99.90;;;;;;5039322;28;20047;-88
2023/09/04 00:50:25;;;;;;;6.10;4.93;;;14.00;99.90;;;;;;5065167;28;20060;-90
2023/09/04 00:53:11;;;;;;;6.47;4.70;;;14.10;99.90;;;;;;5015570;28;20094;-90
2023/09/04 00:55:46;;;;;;;5.00;4.43;;;14.10;99.90;;;;;;5067598;28;20039;-89
2023/09/04 00:58:17;;;;;;;6.10;4.28;;;14.00;99.90;;;;;;5066823;28;20064;-89
2023/09/04 01:00:50;;;;;;;4.50;4.10;;;13.90;99.90;;;;;;5035403;28;20530;-89
2023/09/04 01:03:20;;;;;;;;;;;13.90;99.90;;;;;;5032175;28;20048;-89
2023/09/04 01:06:22;;;;;;;4.68;3.85;;;13.90;99.90;;;;;;5036490;28;20000;-89
2023/09/04 01:09:01;;;;;;;5.53;4.20;;;13.90;99.90;;;;;;5038340;28;20045;-89
2023/09/04 01:11:42;;;;;;;5.68;4.55;;;13.90;99.90;;;;;;5054732;28;20036;-90
2023/09/04 01:14:18;;;;;;;5.30;4.15;;;13.90;99.90;;;;;;5056758;28;20041;-89
2023/09/04 01:16:57;;;;;;;4.03;3.45;;;13.90;99.90;;;;;;5049557;28;20581;-89
2023/09/04 01:19:39;;;;;;;5.65;4.35;;;13.70;99.90;;;;;;5052028;28;20524;-89
2023/09/04 01:22:25;;;;;;;4.13;3.72;;;13.80;99.90;;;;;;5068544;28;20055;-91
2023/09/04 01:24:57;;;;;;;4.63;4.18;;;13.70;99.90;;;;;;5061784;28;20063;-89
2023/09/04 01:27:41;;;;;;;4.18;3.13;;;13.80;99.90;;;;;;5054603;28;20344;-89
2023/09/04 01:30:26;;;;;;;6.25;4.32;;;13.70;99.90;;;;;;5059321;28;20040;-89
2023/09/04 01:33:19;;;;;;;;;;;;;;;;;;;;;
2023/09/04 01:36:00;;;;;;;4.38;3.78;;;13.60;99.90;;;;;;5055500;28;20059;-89
2023/09/04 01:38:34;;;;;;;4.00;3.03;;;13.60;99.90;;;;;;5043255;28;20424;-88
2023/09/04 01:41:04;;;;;;;4.50;3.33;;;13.60;99.90;;;;;;5060116;28;20043;-88
2023/09/04 01:43:45;;;;;;;4.97;2.88;;;13.50;99.90;;;;;;5058661;28;20045;-89
2023/09/04 01:46:54;;;;;;;4.55;3.90;;;13.50;99.90;;;;;;5014679;28;20041;-89
2023/09/04 01:49:58;;;;;;;4.82;4.22;;;13.60;99.90;;;;;;5056857;28;20036;-89
2023/09/04 01:52:53;;;;;;;6.15;5.30;;;13.50;99.90;;;;;;5066441;28;20040;-89
2023/09/04 01:55:58;;;;;;;7.50;5.80;;;13.50;99.90;;;;;;5031916;28;20051;-89
2023/09/04 01:58:43;;;;;;;6.45;5.85;;;13.50;99.90;;;;;;5050389;28;20101;-89
2023/09/04 02:01:14;;;;;;;5.70;5.10;;;13.50;99.90;;;;;;5028189;28;20353;-89
2023/09/04 02:04:13;;;;;;;5.57;5.00;;;13.50;99.90;;;;;;5030432;28;20055;-88
2023/09/04 02:07:03;;;;;;;6.68;5.70;;;13.60;99.90;;;;;;5026637;28;20032;-89
2023/09/04 02:09:33;;;;;;;6.03;4.93;;;13.40;99.90;;;;;;5053396;28;20093;-89
2023/09/04 02:12:09;;;;;;;5.07;4.30;;;13.40;99.90;;;;;;5048474;28;20120;-89
2023/09/04 02:15:13;;;;;;;6.25;5.13;;;13.40;99.90;;;;;;5065823;28;20215;-89
2023/09/04 02:21:44;;;;;;;5.85;5.00;;;13.40;99.90;;;;;;5043940;28;20052;-89
2023/09/04 02:24:18;;;;;;;5.95;5.35;;;13.30;99.90;;;;;;5051885;28;20128;-89
2023/09/04 02:27:18;;;;;;;8.63;6.50;;;13.30;99.90;;;;;;5047155;28;20085;-89
2023/09/04 02:29:56;;;;;;;7.55;6.85;;;13.40;99.90;;;;;;5051909;28;20084;-89
2023/09/04 02:32:46;;;;;;;;;;;;;;;;;;;;;
2023/09/04 02:35:25;;;;;;;7.50;6.40;;;13.30;99.90;;;;;;5045237;28;20053;-89
2023/09/04 02:38:07;;;;;;;8.93;6.18;;;13.30;99.90;;;;;;5060785;28;20412;-89
2023/09/04 02:41:06;;;;;;;6.85;6.15;;;13.30;99.90;;;;;;5032302;28;20514;-89
2023/09/04 02:43:53;;;;;;;9.02;7.82;;;13.30;99.90;;;;;;5052993;28;20044;-89
2023/09/04 02:46:56;;;;;;;6.93;6.22;;;13.30;99.90;;;;;;5029926;28;20049;-89
2023/09/04 02:49:39;;;;;;;8.80;6.90;;;13.30;99.90;;;;;;5044512;28;20052;-89
2023/09/04 02:52:17;;;;;;;7.72;6.20;;;13.30;99.90;;;;;;5037843;28;20484;-88
2023/09/04 02:55:13;;;;;;;6.88;6.18;;;13.20;99.90;;;;;;5046105;28;20045;-88
2023/09/04 02:58:08;;;;;;;7.10;6.40;;;13.20;99.90;;;;;;5050597;28;20092;-89
2023/09/04 03:01:16;;;;;;;5.90;5.30;;;13.20;99.90;;;;;;5058133;28;20037;-89
2023/09/04 03:04:22;;;;;;;7.05;6.35;;;13.20;99.90;;;;;;5070759;28;20044;-90
2023/09/04 03:07:12;;;;;;;;;;;13.10;99.90;;;;;;5050037;28;20044;-89
2023/09/04 03:16:41;;;;;;;5.72;4.93;;;13.10;99.90;;;;;;5064614;28;20505;-89
2023/09/04 03:19:07;;;;;;;6.18;5.40;;;13.00;99.90;;;;;;5044312;28;20088;-89
2023/09/04 03:24:30;;;;;;;;;;;13.10;99.90;;;;;;5047545;28;20051;-89
2023/09/04 03:27:33;;;;;;;5.70;5.10;;;13.00;99.90;;;;;;5049288;28;20442;-89
2023/09/04 03:33:43;;;;;;;6.82;5.18;;;12.80;99.90;;;;;;5049065;28;20048;-90
2023/09/04 03:36:31;;;;;;;;;;;;;;;;;;;;;
2023/09/04 03:39:05;;;;;;;4.72;4.22;;;12.90;99.90;;;;;;5058288;28;19923;-88
2023/09/04 03:42:10;;;;;;;5.20;4.40;;;12.80;99.90;;;;;;5046634;28;20442;-89
2023/09/04 03:45:03;;;;;;;5.75;5.03;;;12.80;99.90;;;;;;5082685;28;20146;-89
2023/09/04 03:47:56;;;;;;;5.38;4.05;;;12.80;99.90;;;;;;5061149;28;20059;-88
2023/09/04 03:50:45;;;;;;;4.38;3.97;;;12.80;99.90;;;;;;5052981;28;20093;-89
2023/09/04 03:53:18;;;;;;;6.18;4.25;;;12.70;99.90;;;;;;5043407;28;20039;-89
2023/09/04 03:56:09;;;;;;;5.30;4.35;;;12.80;99.90;;;;;;5047641;28;20048;-89
2023/09/04 03:58:38;;;;;;;6.82;4.80;;;12.70;99.90;;;;;;5085874;28;20461;-89
2023/09/04 04:01:13;;;;;;;5.15;4.57;;;12.70;99.90;;;;;;5021531;28;20090;-89
2023/09/04 04:04:26;;;;;;;5.45;4.15;;;12.70;99.90;;;;;;5061410;28;20040;-89
2023/09/04 04:06:56;;;;;;;4.47;3.78;;;12.70;99.90;;;;;;5030209;28;20178;-88
2023/09/04 04:09:54;;;;;;;4.47;3.53;;;12.70;99.90;;;;;;5011138;28;20040;-88
2023/09/04 04:13:08;;;;;;;3.33;2.75;;;12.60;99.90;;;;;;5065321;28;20381;-89
2023/09/04 04:16:36;;;;;;;4.65;3.92;;;12.70;99.90;;;;;;5056615;28;20054;-88
2023/09/04 04:19:16;;;;;;;8.52;7.45;;;12.60;99.90;;;;;;5046983;28;20045;-89
2023/09/04 04:22:11;;;;;;;6.78;4.97;;;12.50;99.90;;;;;;5047349;28;20047;-89
2023/09/04 04:25:10;;;;;;;4.95;4.15;;;12.50;99.90;;;;;;5059525;28;20045;-89
2023/09/04 04:27:56;;;;;;;10.20;9.10;;;12.50;99.90;;;;;;5060567;28;20065;-89
2023/09/04 04:30:38;;;;;;;10.35;9.25;;;12.50;99.90;;;;;;5063170;28;20115;-89
2023/09/04 04:33:28;;;;;;;;;;;;;;;;;;;;;
2023/09/04 04:36:15;;;;;;;4.27;3.87;;;12.50;99.90;;;;;;5052343;28;20499;-89
2023/09/04 04:42:28;;;;;;;4.93;4.07;;;12.50;99.90;;;;;;5039960;28;20074;-89
2023/09/04 04:45:55;;;;;;;;;;;;;;;;;;;;;
2023/09/04 04:48:44;;;;;;;6.53;5.18;;;12.40;99.90;;;;;;5049878;28;20033;-89
2023/09/04 04:51:31;;;;;;;5.50;4.90;;;12.40;99.90;;;;;;5045007;28;20044;-89
2023/09/04 04:58:14;;;;;;;4.10;3.60;;;12.40;99.90;;;;;;4975700;28;20079;-89
2023/09/04 05:01:16;;;;;;;5.38;3.47;;;12.30;99.90;;;;;;5059268;28;20047;-89
2023/09/04 05:04:24;;;;;;;3.50;3.10;;;12.30;99.90;;;;;;5034520;28;20191;-90
2023/09/04 05:07:45;;;;;;;;;;;;;;;;;;;;;
2023/09/04 05:10:44;;;;;;;;;;;;;;;;;;;;;
2023/09/04 05:14:22;;;;;;;5.68;2.80;;;12.40;99.90;;;;;;5053882;28;20090;-88
2023/09/04 05:16:34;;;;;;;4.43;3.65;;;12.40;99.90;;;;;;5064626;28;20052;-88
2023/09/04 05:19:00;;;;;;;;;;;12.40;99.90;;;;;;5051450;28;20055;-89
2023/09/04 05:21:26;;;;;;;5.68;4.03;;;12.40;99.90;;;;;;5035561;28;20103;-88
2023/09/04 05:23:52;;;;;;;6.75;5.22;;;12.40;99.90;;;;;;5053256;28;20083;-89
2023/09/04 05:26:27;;;;;;;6.28;5.10;;;12.50;99.90;;;;;;5051783;28;20051;-89
2023/09/04 05:29:32;;;;;;;8.48;6.50;;;12.60;99.90;;;;;;5048411;28;20047;-89
2023/09/04 05:32:43;;;;;;;6.93;6.22;;;12.70;99.90;;;;;;5005906;28;20050;-88
2023/09/04 05:35:15;;;;;;;6.63;5.93;;;12.70;99.90;;;;;;5037849;28;20076;-88
2023/09/04 05:37:41;;;;;;;7.85;6.30;;;12.80;99.90;;;;;;5027417;28;20032;-89
2023/09/04 05:40:13;;;;;;;6.05;5.45;;;12.80;99.90;;;;;;5032683;28;20128;-88
2023/09/04 05:42:53;;;;;;;8.75;6.65;;;12.90;99.90;;;;;;5034512;28;20052;-89
2023/09/04 05:45:35;;;;;;;6.78;6.07;;;13.00;99.90;;;;;;5058593;28;20044;-88
2023/09/04 05:48:39;;;;;;;6.90;6.13;;;13.10;99.90;;;;;;5058871;28;20120;-89
2023/09/04 05:51:47;;;;;;;6.88;6.18;;;13.20;99.90;;;;;;5072069;28;20082;-88
2023/09/04 05:54:30;;;;;;;9.02;7.45;;;13.20;99.90;;;;;;5072645;28;20109;-88
2023/09/04 05:57:18;;;;;;;8.38;6.93;;;13.30;99.90;;;;;;5071401;28;20055;-88
2023/09/04 06:00:17;;;;;;;8.57;7.43;;;13.30;99.90;;;;;;5057362;28;20052;-89
2023/09/04 06:03:29;;;;;;;7.88;6.32;;;13.40;99.90;;;;;;5036596;28;20474;-88
2023/09/04 06:06:24;;;;;;;9.70;8.25;;;13.40;99.90;;;;;;5049872;28;20041;-88
2023/09/04 06:09:17;;;;;;;7.93;6.60;;;13.50;99.90;;;;;;5034274;28;20124;-88
2023/09/04 06:12:27;;;;;;;9.15;7.60;;;13.70;99.90;;;;;;5037184;28;20080;-89
2023/09/04 06:15:14;;;;;;;11.57;8.32;;;13.60;99.90;;;;;;4931423;28;20043;-87
2023/09/04 06:18:15;;;;;;;13.02;9.38;;;13.70;99.90;;;;;;5022383;28;20527;-90
2023/09/04 06:21:32;;;;;;;10.85;9.18;;;13.80;99.90;;;;;;5048724;28;20044;-88
2023/09/04 06:23:58;;;;;;;12.45;9.18;;;13.90;99.90;;;;;;5070151;23;20046;-57
2023/09/04 06:26:23;;;;;;;10.55;9.48;;;14.10;99.90;;;;;;5055807;28;20510;-57
2023/09/04 06:28:49;;;;;;;12.23;9.73;;;14.20;99.90;;;;;;5066020;28;20513;-54
2023/09/04 06:31:15;;;;;;;12.52;10.63;;;14.30;99.90;;;;;;5068319;28;20039;-56
2023/09/04 06:33:41;;;;;;;11.38;10.00;;;14.40;99.90;;;;;;5079453;28;20044;-58
2023/09/04 06:36:07;;;;;;;11.82;10.63;;;14.50;99.90;;;;;;5033494;28;20096;-58
2023/09/04 06:38:33;;;;;;;10.32;9.30;;;14.60;99.90;;;;;;5052591;28;20040;-58
2023/09/04 06:40:58;;;;;;;11.32;10.15;;;14.70;99.90;;;;;;5019907;28;20191;-57
2023/09/04 06:43:25;;;;;;;10.07;9.05;;;14.80;99.90;;;;;;5061921;28;20048;-57
2023/09/04 06:45:51;;;;;;;14.75;10.07;;;14.90;99.90;;;;;;5068922;28;20475;-55
2023/09/04 06:48:17;;;;;;;12.25;10.13;;;15.00;99.90;;;;;;5048023;28;20055;-57
2023/09/04 06:50:42;;;;;;;12.65;10.48;;;15.10;99.90;;;;;;5064273;28;20127;-58
2023/09/04 06:53:08;;;;;;;13.05;10.35;;;15.20;99.90;;;;;;5068315;28;20036;-56
2023/09/04 06:55:34;;;;;;;12.52;10.85;;;15.40;99.90;;;;;;5047934;28;20040;-59
2023/09/04 06:57:59;;;;;;;11.48;10.05;;;15.50;99.90;;;;;;5065928;28;20048;-57
2023/09/04 07:00:25;;;;;;;12.30;10.95;;;15.60;99.90;;;;;;5049008;28;20499;-58
2023/09/04 07:02:51;;;;;;;12.38;9.93;;;15.70;99.90;;;;;;5065826;28;20044;-58
2023/09/04 07:05:17;;;;;;;10.27;9.18;;;15.90;99.90;;;;;;5062306;28;20116;-55
2023/09/04 07:07:42;;;;;;;10.00;8.63;;;16.00;99.90;;;;;;5047773;28;20028;-59
2023/09/04 07:10:08;;;;;;;13.13;9.50;;;16.20;99.90;;;;;;5047740;28;20094;-58
2023/09/04 07:12:35;;;;;;;9.55;7.80;;;16.30;99.90;;;;;;5030736;28;20059;-55
2023/09/04 07:15:02;;;;;;;11.85;9.57;;;16.50;99.90;;;;;;5065095;28;20047;-57
2023/09/04 07:17:27;;;;;;;10.23;8.40;;;16.60;99.90;;;;;;5052818;28;20040;-57
2023/09/04 07:19:53;;;;;;;9.80;7.80;;;16.70;99.90;;;;;;5082525;28;20032;-59
2023/09/04 07:22:19;;;;;;;9.98;8.52;;;16.90;99.90;;;;;;5064799;28;20032;-58
2023/09/04 07:24:45;;;;;;;11.52;8.10;;;17.00;99.90;;;;;;5066032;28;20071;-58
2023/09/04 07:27:11;;;;;;;8.18;7.38;;;17.10;99.90;;;;;;5034351;28;20044;-59
2023/09/04 07:29:37;;;;;;;7.47;6.65;;;17.30;99.90;;;;;;5066404;28;20449;-59
2023/09/04 07:32:03;;;;;;;7.60;6.78;;;17.40;99.90;;;;;;5060007;28;20046;-57
2023/09/04 07:34:29;;;;;;;8.50;6.55;;;17.50;99.90;;;;;;5046802;28;20510;-55
2023/09/04 07:36:55;;;;;;;9.35;6.30;;;17.60;99.90;;;;;;5082037;28;20052;-54
2023/09/04 07:39:21;;;;;;;10.25;7.05;;;17.70;99.90;;;;;;5046086;28;20040;-57
2023/09/04 07:41:46;;;;;;;9.18;7.00;;;17.80;99.90;;;;;;5069034;28;20660;-59
2023/09/04 07:44:12;;;;;;;6.63;5.63;;;17.90;99.90;;;;;;5068527;28;20128;-57
2023/09/04 07:46:38;;;;;;;7.57;4.82;;;18.10;99.90;;;;;;5069563;28;20402;-59
2023/09/04 07:49:03;;;;;;;6.65;5.82;;;18.10;99.90;;;;;;5053567;28;20497;-58
2023/09/04 07:51:29;;;;;;;6.90;6.00;;;18.30;99.90;;;;;;5066701;28;20028;-57
2023/09/04 07:53:55;;;;;;;9.18;5.03;;;18.40;99.90;;;;;;5076724;28;20036;-57
2023/09/04 07:56:22;;;;;;;6.68;5.65;;;18.50;99.90;;;;;;5038413;28;20036;-58
2023/09/04 07:58:49;;;;;;;8.35;5.00;;;18.70;99.90;;;;;;5087109;28;20075;-58
2023/09/04 08:01:14;;;;;;;6.63;5.22;;;18.80;99.90;;;;;;5063867;28;20109;-57
2023/09/04 08:03:41;;;;;;;9.48;5.18;;;19.00;99.90;;;;;;5081847;28;20051;-58
2023/09/04 08:06:07;;;;;;;7.70;4.63;;;19.10;99.90;;;;;;5078483;28;20082;-58
2023/09/04 08:08:34;;;;;;;6.05;5.18;;;19.20;99.90;;;;;;5069273;28;20047;-57
2023/09/04 08:11:00;;;;;;;8.70;5.13;;;19.30;99.90;;;;;;5069923;28;20044;-59
2023/09/04 08:13:25;;;;;;;5.00;4.05;;;19.40;99.90;;;;;;5088878;28;20035;-59
2023/09/04 08:15:51;;;;;;;6.05;4.80;;;19.50;99.90;;;;;;5061189;28;20040;-60
2023/09/04 08:18:17;;;;;;;5.72;4.90;;;19.60;99.90;;;;;;5060830;28;20040;-56
2023/09/04 08:20:43;;;;;;;7.13;4.55;;;19.70;99.90;;;;;;5071230;28;20040;-59
2023/09/04 08:23:11;;;;;;;7.90;4.13;;;19.80;99.90;;;;;;5051434;28;20152;-58
2023/09/04 08:25:37;;;;;;;5.93;4.43;;;19.80;99.90;;;;;;5069957;28;20423;-59
2023/09/04 08:28:03;;;;;;;7.22;4.20;;;19.90;99.90;;;;;;5083864;28;20433;-57
2023/09/04 08:30:30;;;;;;;6.72;4.75;;;20.00;99.90;;;;;;5067324;28;20671;-58
2023/09/04 08:32:56;;;;;;;6.60;4.18;;;20.00;99.90;;;;;;5051406;28;20044;-59
2023/09/04 08:35:21;;;;;;;6.47;4.22;;;20.10;99.90;;;;;;5065185;28;20442;-59
2023/09/04 08:37:47;;;;;;;6.00;4.25;;;20.20;99.90;;;;;;5065744;28;20036;-59
2023/09/04 08:40:14;;;;;;;5.63;4.13;;;20.30;99.90;;;;;;5083776;28;20055;-58
2023/09/04 08:42:40;;;;;;;7.32;4.28;;;20.40;99.90;;;;;;5040716;28;20043;-57
2023/09/04 08:45:07;;;;;;;6.70;5.22;;;20.50;99.90;;;;;;5063238;28;20032;-58
2023/09/04 08:47:39;;;;;;;6.10;5.18;;;20.60;99.90;;;;;;5066942;28;20040;-57
2023/09/04 08:50:06;;;;;;;6.22;4.47;;;20.80;99.90;;;;;;5064384;28;20044;-59
2023/09/04 08:52:32;;;;;;;6.40;4.20;;;20.80;99.90;;;;;;5066038;28;20120;-58
2023/09/04 08:54:58;;;;;;;6.30;4.30;;;21.00;99.90;;;;;;5068925;28;20131;-59
2023/09/04 08:57:25;;;;;;;6.18;4.20;;;21.00;99.90;;;;;;5067295;28;20087;-57
2023/09/04 08:59:51;;;;;;;6.70;4.00;;;21.10;99.90;;;;;;5068578;28;20051;-59
2023/09/04 09:02:18;;;;;;;6.63;4.00;;;21.10;99.90;;;;;;5051205;28;20111;-58
2023/09/04 09:04:43;;;;;;;4.68;3.85;;;21.10;99.90;;;;;;5047377;28;20300;-58
2023/09/04 09:07:11;;;;;;;6.65;4.18;;;21.20;99.90;;;;;;5060029;28;20490;-60
2023/09/04 09:09:39;;;;;;;4.60;3.55;;;21.30;99.90;;;;;;5063520;28;20036;-58
2023/09/04 09:12:05;;;;;;;5.00;3.50;;;21.30;99.90;;;;;;5067902;28;20051;-60
2023/09/04 09:14:31;;;;;;;3.97;3.30;;;21.40;99.90;;;;;;5079471;28;20048;-58
2023/09/04 09:17:14;;;;;;;10.38;3.65;;;21.50;99.90;;;;;;5079658;28;20040;-59
2023/09/04 09:19:41;;;;;;;6.05;3.20;;;21.60;99.90;;;;;;5068081;28;20066;-58
2023/09/04 09:22:14;;;;;;;4.07;3.60;;;21.80;99.90;;;;;;5071644;28;20066;-59
2023/09/04 09:24:56;;;;;;;;;;;21.80;99.90;;;;;;5065078;28;20032;-60
2023/09/04 09:27:24;;;;;;;4.55;2.70;;;21.80;99.90;;;;;;5069004;28;19923;-59
2023/09/04 09:29:51;;;;;;;5.10;3.33;;;22.00;99.90;;;;;;5087973;28;20047;-59
2023/09/04 09:32:18;;;;;;;4.35;3.47;;;22.00;99.90;;;;;;5065312;28;20040;-60
2023/09/04 09:34:51;;;;;;;5.80;3.25;;;22.00;99.90;;;;;;5067675;28;20036;-58
2023/09/04 09:37:18;;;;;;;5.23;3.20;;;22.10;99.90;;;;;;5080376;28;20290;-59
2023/09/04 09:39:43;;;;;;;4.30;2.92;;;22.20;99.90;;;;;;5080219;28;20105;-58
2023/09/04 09:42:11;;;;;;;3.97;3.03;;;22.20;99.90;;;;;;5069657;28;20052;-56
2023/09/04 09:44:37;;;;;;;4.40;3.05;;;22.30;99.90;;;;;;5035654;28;20071;-58
2023/09/04 09:47:06;;;;;;;7.10;3.15;;;22.40;99.90;;;;;;5064298;28;20076;-59
2023/09/04 09:49:36;;;;;;;5.03;3.00;;;22.40;99.90;;;;;;5084694;28;20115;-56
2023/09/04 09:52:02;;;;;;;4.10;3.13;;;22.40;99.90;;;;;;5067069;28;20105;-59
2023/09/04 09:54:36;;;;;;;3.65;2.88;;;22.50;99.90;;;;;;5050016;28;20060;-59
2023/09/04 09:57:03;;;;;;;6.18;3.33;;;22.50;99.90;;;;;;5067643;28;20303;-58
2023/09/04 09:59:32;;;;;;;4.22;2.90;;;22.40;99.90;;;;;;5067789;28;20047;-59
2023/09/04 10:01:59;;;;;;;5.50;2.85;;;22.40;99.90;;;;;;5086775;28;20032;-58
2023/09/04 10:04:26;;;;;;;4.78;2.53;;;22.50;99.90;;;;;;5083556;28;20048;-57
2023/09/04 10:06:54;;;;;;;3.58;2.50;;;22.60;99.90;;;;;;5050964;28;20098;-59
2023/09/04 10:09:23;;;;;;;2.97;2.58;;;22.70;99.90;;;;;;5063537;28;20575;-59
2023/09/04 10:12:09;;;;;;;2.90;2.35;;;22.70;99.90;;;;;;5074792;28;20055;-58
2023/09/04 10:14:45;;;;;;;4.90;2.60;;;22.70;99.90;;;;;;5070507;28;20506;-59
2023/09/04 10:17:30;;;;;;;3.40;2.25;;;22.80;99.90;;;;;;5068271;28;20044;-59
2023/09/04 10:20:01;;;;;;;5.78;2.58;;;22.90;99.90;;;;;;5051057;28;20058;-59
2023/09/04 10:22:34;;;;;;;3.92;2.65;;;23.00;99.90;;;;;;5066630;28;20412;-56
2023/09/04 10:25:31;;;;;;;3.53;2.10;;;23.30;99.90;;;;;;5087637;28;20068;-56
2023/09/04 10:28:06;;;;;;;4.78;2.20;;;23.40;99.90;;;;;;5070810;28;20074;-56
2023/09/04 10:30:36;;;;;;;3.65;2.22;;;23.40;99.90;;;;;;5060006;28;20089;-58
2023/09/04 10:33:02;;;;;;;3.88;2.47;;;23.50;99.90;;;;;;5068185;28;20495;-59
2023/09/04 10:35:28;;;;;;;3.95;2.28;;;23.50;99.90;;;;;;5074768;28;20035;-57
2023/09/04 10:37:56;;;;;;;3.40;2.00;;;23.60;99.90;;;;;;5066473;28;20079;-56
2023/09/04 10:40:22;;;;;;;3.47;2.38;;;23.80;99.90;;;;;;5063252;28;20051;-57
2023/09/04 10:42:48;;;;;;;4.65;2.50;;;23.90;99.90;;;;;;5084719;28;20545;-56
2023/09/04 10:45:15;;;;;;;4.88;2.13;;;23.80;99.80;;;;;;5070952;28;20039;-57
2023/09/04 10:47:49;;;;;;;3.28;2.05;;;23.80;99.90;;;;;;5092049;28;20225;-59
2023/09/04 10:50:38;;;;;;;3.20;2.00;;;23.90;99.90;;;;;;5052664;28;20036;-56
2023/09/04 10:53:06;;;;;;;2.78;2.00;;;24.00;99.90;;;;;;5082067;28;20348;-57
2023/09/04 10:55:35;;;;;;;3.03;2.08;;;24.20;99.90;;;;;;5064895;28;20541;-59
2023/09/04 10:58:06;;;;;;;3.00;2.33;;;24.20;99.50;;;;;;5066620;28;20111;-55
2023/09/04 11:00:39;;;;;;;3.42;2.10;;;24.20;99.10;;;;;;5083505;28;20036;-56
2023/09/04 11:03:23;;;;;;;3.20;2.17;;;24.20;99.40;;;;;;5073212;28;20089;-56
2023/09/04 11:06:10;;;;;;;3.17;2.15;;;24.20;99.90;;;;;;5066200;28;20036;-57
2023/09/04 11:08:40;;;;;;;3.10;1.75;;;24.30;99.00;;;;;;5068319;28;20067;-57
2023/09/04 11:11:08;;;;;;;2.10;1.73;;;24.30;99.30;;;;;;5088670;28;20028;-57
2023/09/04 11:13:38;;;;;;;3.63;2.00;;;24.30;99.00;;;;;;5054213;28;20040;-59
2023/09/04 11:16:06;;;;;;;3.25;2.08;;;24.50;98.80;;;;;;5064851;28;20135;-56
2023/09/04 11:18:33;;;;;;;3.42;2.15;;;24.60;98.70;;;;;;5050787;28;20127;-56
2023/09/04 11:21:00;;;;;;;3.85;2.15;;;24.60;98.80;;;;;;5073518;28;20047;-57
2023/09/04 11:23:26;;;;;;;3.47;1.90;;;24.80;99.00;;;;;;5071088;28;20487;-57
2023/09/04 11:25:52;;;;;;;3.50;1.83;;;24.90;98.80;;;;;;5068590;28;20067;-59
2023/09/04 11:28:26;;;;;;;4.00;2.13;;;25.00;98.20;;;;;;5070912;28;20476;-59
2023/09/04 11:30:54;;;;;;;4.50;2.58;;;25.10;98.40;;;;;;5065048;28;20047;-57
2023/09/04 11:33:22;;;;;;;2.90;1.88;;;25.10;98.00;;;;;;5070254;28;20050;-56
2023/09/04 11:35:59;;;;;;;4.18;2.10;;;24.90;98.00;;;;;;5065493;28;20465;-57
2023/09/04 11:38:26;;;;;;;3.55;2.00;;;24.80;97.80;;;;;;5054427;28;20047;-57
2023/09/04 11:40:52;;;;;;;3.65;1.85;;;24.70;98.50;;;;;;5055192;28;20044;-57
2023/09/04 11:43:19;;;;;;;3.85;1.83;;;24.80;98.50;;;;;;5053504;28;20036;-57
2023/09/04 11:45:45;;;;;;;4.00;2.08;;;25.00;98.50;;;;;;5053195;28;20040;-57
2023/09/04 11:48:13;;;;;;;2.63;1.65;;;25.10;98.70;;;;;;5081835;28;20028;-58
2023/09/04 11:50:39;;;;;;;3.65;2.10;;;25.20;98.40;;;;;;5067540;28;20036;-59
2023/09/04 11:53:06;;;;;;;2.92;1.52;;;25.40;98.50;;;;;;5072912;28;20048;-59
2023/09/04 11:55:34;;;;;;;4.07;2.00;;;25.60;98.50;;;;;;5065850;28;20052;-57
2023/09/04 11:58:03;;;;;;;6.10;2.55;;;25.80;98.00;;;;;;5070802;28;20063;-57
2023/09/04 12:00:28;;;;;;;2.97;1.58;;;25.90;97.90;;;;;;5069931;28;20499;-57
2023/09/04 12:02:54;;;;;;;2.50;1.30;;;26.00;97.40;;;;;;5088068;28;20068;-57
2023/09/04 12:05:20;;;;;;;6.88;1.80;;;26.10;96.80;;;;;;5070380;28;20542;-59
2023/09/04 12:07:46;;;;;;;4.72;2.25;;;26.10;96.80;;;;;;5051294;28;20036;-59
2023/09/04 12:10:12;;;;;;;3.65;2.00;;;26.10;96.40;;;;;;5084989;28;20119;-58
2023/09/04 12:12:38;;;;;;;2.92;1.98;;;26.00;96.90;;;;;;5069959;28;20182;-56
2023/09/04 12:15:04;;;;;;;2.85;1.60;;;26.00;96.50;;;;;;5064421;28;20643;-56
2023/09/04 12:17:31;;;;;;;4.32;2.10;;;25.90;96.50;;;;;;5064368;28;20261;-57
2023/09/04 12:19:57;;;;;;;3.40;1.58;;;25.90;97.20;;;;;;5064433;28;20623;-59
2023/09/04 12:22:22;;;;;;;4.72;2.08;;;26.00;96.80;;;;;;5068271;28;20040;-58
2023/09/04 12:25:04;;;;;;;2.50;1.70;;;26.00;96.60;;;;;;5085832;28;20567;-58
2023/09/04 12:27:29;;;;;;;2.55;1.83;;;26.00;96.10;;;;;;5052097;28;20509;-55
2023/09/04 12:29:55;;;;;;;6.35;1.92;;;25.80;96.50;;;;;;5067488;28;20048;-58
2023/09/04 12:32:21;;;;;;;3.00;1.50;;;25.70;96.30;;;;;;5062864;28;20027;-59
2023/09/04 12:34:50;;;;;;;2.75;1.50;;;25.70;96.50;;;;;;5048937;28;20220;-58
2023/09/04 12:37:19;;;;;;;2.83;1.52;;;25.70;97.10;;;;;;5051750;28;20035;-62
2023/09/04 12:39:45;;;;;;;1.85;1.50;;;25.80;96.20;;;;;;5043573;28;20044;-56
2023/09/04 12:42:10;;;;;;;3.40;1.70;;;25.80;96.70;;;;;;5061638;28;20044;-57
2023/09/04 12:44:36;;;;;;;3.78;1.70;;;26.10;96.60;;;;;;5034777;28;20459;-56
2023/09/04 12:47:02;;;;;;;2.72;1.70;;;26.40;95.60;;;;;;5077912;28;20046;-60
2023/09/04 12:49:28;;;;;;;2.78;1.52;;;26.50;95.70;;;;;;5066864;28;20115;-57
2023/09/04 12:51:53;;;;;;;2.55;1.40;;;26.60;95.20;;;;;;5049048;28;20036;-57
2023/09/04 12:54:19;;;;;;;2.45;1.40;;;26.40;95.00;;;;;;5069220;28;20042;-56
2023/09/04 12:56:45;;;;;;;1.70;1.42;;;26.40;95.30;;;;;;5081535;28;20391;-58
2023/09/04 12:59:11;;;;;;;2.20;1.25;;;26.60;95.40;;;;;;5085264;28;20491;-58
2023/09/04 13:01:36;;;;;;;1.80;1.38;;;26.90;95.00;;;;;;5047702;28;20048;-58
2023/09/04 13:04:03;;;;;;;2.17;1.55;;;27.00;95.40;;;;;;5047722;28;20036;-56
2023/09/04 13:06:30;;;;;;;3.13;1.58;;;27.10;95.40;;;;;;5070119;28;20443;-60
2023/09/04 13:08:56;;;;;;;2.28;1.40;;;27.30;95.10;;;;;;5063128;28;20119;-58
2023/09/04 13:11:22;;;;;;;1.83;1.20;;;27.30;94.20;;;;;;5061272;28;20123;-57
2023/09/04 13:13:47;;;;;;;3.03;1.63;;;27.30;94.90;;;;;;5077564;28;20044;-58
2023/09/04 13:16:13;;;;;;;2.38;1.40;;;27.30;94.60;;;;;;5079633;28;20058;-58
2023/09/04 13:18:39;;;;;;;3.00;1.42;;;27.40;93.80;;;;;;5051079;28;20035;-57
2023/09/04 13:21:05;;;;;;;2.47;1.52;;;27.40;94.20;;;;;;5060832;28;20040;-57
2023/09/04 13:23:30;;;;;;;2.05;1.60;;;27.40;93.80;;;;;;5064810;28;20087;-58
2023/09/04 13:25:56;;;;;;;1.95;1.40;;;27.20;93.60;;;;;;5063728;28;20143;-56
2023/09/04 13:28:22;;;;;;;4.93;1.80;;;27.00;94.00;;;;;;5061264;28;20029;-59
2023/09/04 13:30:48;;;;;;;5.07;1.65;;;27.00;94.20;;;;;;5049417;28;20054;-59
2023/09/04 13:33:14;;;;;;;3.15;1.58;;;27.00;94.60;;;;;;5061298;28;20052;-59
2023/09/04 13:35:39;;;;;;;3.08;1.65;;;27.20;94.10;;;;;;5066486;28;20093;-57
2023/09/04 13:38:05;;;;;;;3.55;1.75;;;27.20;94.20;;;;;;5063319;28;20066;-56
2023/09/04 13:40:34;;;;;;;3.88;1.70;;;27.30;94.20;;;;;;5049460;28;20044;-59
2023/09/04 13:43:00;;;;;;;5.15;1.75;;;27.30;94.30;;;;;;5062304;28;20040;-57
2023/09/04 13:45:26;;;;;;;4.15;1.70;;;27.30;94.50;;;;;;5051423;28;20034;-58
2023/09/04 13:47:51;;;;;;;2.30;1.63;;;27.40;94.60;;;;;;5062429;28;20044;-59
2023/09/04 13:50:17;;;;;;;3.15;1.60;;;27.30;94.40;;;;;;5065934;28;20068;-59
2023/09/04 13:52:43;;;;;;;1.92;1.40;;;27.30;94.10;;;;;;5084295;28;20040;-57
2023/09/04 13:55:09;;;;;;;2.90;1.60;;;27.40;93.80;;;;;;5045415;28;20151;-59
2023/09/04 13:57:35;;;;;;;3.42;1.63;;;27.40;93.70;;;;;;5055886;28;20063;-58
2023/09/04 14:00:01;;;;;;;3.47;1.70;;;27.40;93.30;;;;;;5064666;28;20044;-59
2023/09/04 14:02:26;;;;;;;2.20;1.50;;;27.30;93.40;;;;;;5063989;28;20063;-59
2023/09/04 14:04:52;;;;;;;2.50;1.50;;;27.10;93.30;;;;;;5059067;28;20048;-58